createdAt,value
2022-07-25T00:02:03.061Z,25.68
2022-07-25T00:04:31.263Z,25.66
2022-07-25T00:06:59.574Z,25.71
2022-07-25T00:09:28.660Z,25.73
2022-07-25T00:11:56.478Z,25.71
2022-07-25T00:14:24.245Z,25.66
2022-07-25T00:16:52.221Z,25.60
2022-07-25T00:19:20.105Z,25.56
2022-07-25T00:21:47.859Z,25.50
2022-07-25T00:24:15.628Z,25.43
2022-07-25T00:26:44.807Z,25.49
2022-07-25T00:29:12.593Z,25.45
2022-07-25T00:31:40.367Z,25.47
2022-07-25T00:34:08.696Z,25.43
2022-07-25T00:36:36.749Z,25.39
2022-07-25T00:39:04.949Z,25.34
2022-07-25T00:41:32.804Z,25.24
2022-07-25T00:44:01.942Z,25.22
2022-07-25T00:46:29.846Z,25.20
2022-07-25T00:48:59.157Z,25.28
2022-07-25T00:51:27.177Z,25.30
2022-07-25T00:53:55.639Z,25.29
2022-07-25T00:56:23.734Z,25.24
2022-07-25T00:58:51.918Z,25.15
2022-07-25T01:01:21.041Z,25.05
2022-07-25T01:03:48.902Z,24.99
2022-07-25T01:06:16.717Z,24.98
2022-07-25T01:08:44.520Z,24.95
2022-07-25T01:11:12.818Z,24.97
2022-07-25T01:13:40.761Z,24.96
2022-07-25T01:16:08.971Z,24.99
2022-07-25T01:18:38.405Z,25.01
2022-07-25T01:21:08.234Z,25.04
2022-07-25T01:23:35.974Z,25.03
2022-07-25T01:26:03.946Z,25.07
2022-07-25T01:28:31.707Z,25.04
2022-07-25T01:30:59.476Z,25.05
2022-07-25T01:33:27.235Z,25.05
2022-07-25T01:35:55.000Z,25.04
2022-07-25T01:38:24.057Z,25.00
2022-07-25T01:40:51.926Z,25.02
2022-07-25T01:43:19.725Z,25.01
2022-07-25T01:45:47.592Z,24.93
2022-07-25T01:48:15.363Z,24.91
2022-07-25T01:50:44.624Z,24.93
2022-07-25T01:53:12.599Z,24.86
2022-07-25T01:55:41.628Z,24.82
2022-07-25T01:58:10.642Z,24.79
2022-07-25T02:00:38.721Z,24.76
2022-07-25T02:03:23.970Z,24.72
2022-07-25T02:05:51.779Z,24.69
2022-07-25T02:08:19.451Z,24.67
2022-07-25T02:10:48.754Z,24.62
2022-07-25T02:13:16.876Z,24.55
2022-07-25T02:15:44.623Z,24.48
2022-07-25T02:18:12.562Z,24.44
2022-07-25T02:20:40.293Z,24.48
2022-07-25T02:23:08.142Z,24.50
2022-07-25T02:25:37.636Z,24.52
2022-07-25T02:28:07.042Z,24.46
2022-07-25T02:30:36.509Z,24.46
2022-07-25T02:33:04.314Z,24.40
2022-07-25T02:35:32.018Z,24.36
2022-07-25T02:37:59.785Z,24.35
2022-07-25T02:40:27.894Z,24.36
2022-07-25T02:42:55.708Z,24.31
2022-07-25T02:45:26.796Z,24.29
2022-07-25T02:47:57.381Z,24.28
2022-07-25T02:50:25.061Z,24.22
2022-07-25T02:52:52.783Z,24.22
2022-07-25T02:55:20.595Z,24.26
2022-07-25T02:57:48.287Z,24.23
2022-07-25T03:00:17.485Z,24.21
2022-07-25T03:02:46.894Z,24.10
2022-07-25T03:05:16.430Z,24.09
2022-07-25T03:07:45.030Z,24.11
2022-07-25T03:10:22.284Z,24.09
2022-07-25T03:12:49.973Z,24.02
2022-07-25T03:18:00.697Z,23.78
2022-07-25T03:20:28.462Z,23.70
2022-07-25T03:22:56.222Z,23.71
2022-07-25T03:25:23.971Z,23.77
2022-07-25T03:27:51.970Z,23.80
2022-07-25T03:30:19.663Z,23.80
2022-07-25T03:32:47.747Z,23.82
2022-07-25T03:35:26.452Z,23.79
2022-07-25T03:37:54.442Z,23.79
2022-07-25T03:40:31.852Z,23.85
2022-07-25T03:42:59.659Z,23.86
2022-07-25T03:45:27.495Z,23.89
2022-07-25T03:47:55.291Z,23.84
2022-07-25T03:50:27.204Z,23.80
2022-07-25T03:52:57.962Z,23.76
2022-07-25T03:55:25.718Z,23.71
2022-07-25T03:57:53.465Z,23.73
2022-07-25T04:00:21.442Z,23.68
2022-07-25T04:02:49.301Z,23.70
2022-07-25T04:05:17.107Z,23.69
2022-07-25T04:07:46.217Z,23.64
2022-07-25T04:10:23.195Z,23.57
2022-07-25T04:12:50.978Z,23.52
2022-07-25T04:15:18.758Z,23.58
2022-07-25T04:17:46.529Z,23.54
2022-07-25T04:20:14.366Z,23.57
2022-07-25T04:22:46.298Z,23.49
2022-07-25T04:25:15.976Z,23.52
2022-07-25T04:27:44.360Z,23.52
2022-07-25T04:30:13.228Z,23.52
2022-07-25T04:32:52.114Z,23.60
2022-07-25T04:35:19.783Z,23.56
2022-07-25T04:37:47.479Z,23.63
2022-07-25T04:40:16.606Z,23.70
2022-07-25T04:42:44.419Z,23.74
2022-07-25T04:45:12.756Z,23.80
2022-07-25T04:47:40.628Z,23.84
2022-07-25T04:50:21.774Z,23.82
2022-07-25T04:52:52.454Z,23.80
2022-07-25T04:55:21.710Z,23.81
2022-07-25T04:57:49.566Z,23.84
2022-07-25T05:00:17.885Z,23.88
2022-07-25T05:02:45.691Z,23.92
2022-07-25T05:11:50.492Z,23.93
2022-07-25T05:14:22.232Z,23.99
2022-07-25T05:16:50.309Z,24.05
2022-07-25T05:19:24.164Z,24.06
2022-07-25T05:21:51.872Z,24.06
2022-07-25T05:24:19.754Z,24.13
2022-07-25T05:26:48.802Z,24.18
2022-07-25T05:29:16.835Z,24.20
2022-07-25T05:31:44.575Z,24.28
2022-07-25T05:34:12.574Z,24.31
2022-07-25T05:36:43.042Z,24.40
2022-07-25T05:39:14.941Z,24.36
2022-07-25T05:41:42.879Z,24.41
2022-07-25T05:44:12.001Z,24.36
2022-07-25T05:46:39.773Z,24.43
2022-07-25T05:49:07.643Z,24.43
2022-07-25T05:51:35.427Z,24.44
2022-07-25T05:54:03.378Z,24.48
2022-07-25T05:56:31.408Z,24.54
2022-07-25T05:58:59.260Z,24.58
2022-07-25T06:01:28.302Z,24.67
2022-07-25T06:03:57.474Z,24.71
2022-07-25T06:06:25.452Z,24.79
2022-07-25T06:08:53.142Z,24.84
2022-07-25T06:11:22.429Z,24.83
2022-07-25T06:13:50.915Z,24.83
2022-07-25T06:16:19.345Z,24.81
2022-07-25T06:18:48.559Z,24.80
2022-07-25T06:21:16.322Z,24.84
2022-07-25T06:23:44.100Z,24.82
2022-07-25T06:26:12.312Z,24.92
2022-07-25T06:28:40.118Z,25.04
2022-07-25T06:31:07.863Z,25.18
2022-07-25T06:33:35.700Z,25.23
2022-07-25T06:36:05.716Z,25.33
2022-07-25T06:38:33.743Z,25.40
2022-07-25T06:41:01.476Z,25.38
2022-07-25T06:43:29.236Z,25.38
2022-07-25T06:45:57.010Z,25.45
2022-07-25T06:48:25.243Z,25.54
2022-07-25T06:50:52.984Z,25.63
2022-07-25T06:53:22.063Z,25.71
2022-07-25T06:55:50.163Z,25.82
2022-07-25T06:58:17.850Z,25.84
2022-07-25T07:00:51.221Z,25.88
2022-07-25T07:03:19.115Z,25.96
2022-07-25T07:05:46.848Z,26.04
2022-07-25T07:08:14.644Z,26.11
2022-07-25T07:10:43.733Z,26.18
2022-07-25T07:13:12.909Z,26.18
2022-07-25T07:15:45.843Z,26.27
2022-07-25T07:18:13.869Z,26.31
2022-07-25T07:20:41.554Z,26.38
2022-07-25T07:23:09.554Z,26.47
2022-07-25T07:25:37.940Z,26.56
2022-07-25T07:28:07.523Z,26.62
2022-07-25T07:31:05.647Z,26.65
2022-07-25T07:33:23.026Z,26.70
2022-07-25T07:35:50.778Z,26.71
2022-07-25T07:38:18.973Z,26.84
2022-07-25T07:40:46.627Z,26.83
2022-07-25T07:43:15.753Z,26.84
2022-07-25T07:45:44.030Z,26.90
2022-07-25T07:48:11.818Z,27.03
2022-07-25T07:50:40.184Z,27.02
2022-07-25T07:53:08.035Z,27.08
2022-07-25T07:55:48.868Z,27.13
2022-07-25T07:58:19.534Z,27.19
2022-07-25T08:00:49.045Z,27.34
2022-07-25T08:03:19.423Z,27.57
2022-07-25T08:05:51.606Z,27.57
2022-07-25T08:08:19.707Z,27.64
2022-07-25T08:10:49.224Z,27.71
2022-07-25T08:13:19.946Z,27.85
2022-07-25T08:15:49.381Z,27.93
2022-07-25T08:18:18.289Z,28.00
2022-07-25T08:20:46.383Z,28.13
2022-07-25T08:23:14.673Z,28.23
2022-07-25T08:25:43.155Z,28.34
2022-07-25T08:28:11.323Z,28.43
2022-07-25T08:30:42.118Z,28.53
2022-07-25T08:33:13.551Z,28.59
2022-07-25T08:35:42.090Z,28.64
2022-07-25T08:38:11.527Z,28.72
2022-07-25T08:40:39.612Z,28.87
2022-07-25T08:43:07.432Z,28.98
2022-07-25T08:45:35.193Z,29.05
2022-07-25T08:48:04.738Z,29.14
2022-07-25T08:50:32.422Z,29.27
2022-07-25T08:53:30.423Z,29.45
2022-07-25T08:55:50.209Z,29.49
2022-07-25T08:58:19.271Z,29.55
2022-07-25T09:00:47.184Z,29.74
2022-07-25T09:03:16.534Z,29.81
2022-07-25T09:05:46.087Z,29.92
2022-07-25T09:08:16.383Z,30.09
2022-07-25T09:10:48.001Z,30.14
2022-07-25T09:13:16.624Z,30.12
2022-07-25T09:15:47.316Z,30.27
2022-07-25T09:18:17.864Z,30.53
2022-07-25T09:20:47.978Z,30.71
2022-07-25T09:23:28.389Z,30.66
2022-07-25T09:26:03.388Z,30.72
2022-07-25T09:28:31.278Z,30.78
2022-07-25T09:31:00.619Z,30.87
2022-07-25T09:33:30.742Z,30.95
2022-07-25T09:35:59.008Z,31.14
2022-07-25T09:38:26.929Z,31.22
2022-07-25T09:40:57.102Z,31.39
2022-07-25T09:43:25.183Z,31.58
2022-07-25T09:45:53.914Z,31.84
2022-07-25T09:48:21.904Z,31.93
2022-07-25T09:50:51.884Z,32.02
2022-07-25T09:53:21.226Z,32.05
2022-07-25T09:55:49.009Z,32.09
2022-07-25T09:58:17.159Z,32.23
2022-07-25T10:00:46.181Z,32.33
2022-07-25T10:03:19.948Z,32.31
2022-07-25T10:06:03.501Z,32.23
2022-07-25T10:08:37.735Z,32.31
2022-07-25T10:11:06.742Z,32.30
2022-07-25T10:13:38.292Z,32.54
2022-07-25T10:16:16.385Z,32.65
2022-07-25T10:18:50.582Z,32.62
2022-07-25T10:21:26.922Z,32.58
2022-07-25T10:24:00.798Z,32.62
2022-07-25T10:26:28.902Z,32.61
2022-07-25T10:28:57.333Z,32.77
2022-07-25T10:31:27.870Z,32.80
2022-07-25T10:33:57.971Z,32.90
2022-07-25T10:36:30.201Z,33.12
2022-07-25T10:39:01.699Z,33.35
2022-07-25T10:41:30.118Z,33.41
2022-07-25T10:44:01.887Z,33.48
2022-07-25T10:46:30.946Z,33.55
2022-07-25T10:49:01.050Z,33.41
2022-07-25T10:51:32.682Z,33.31
2022-07-25T10:54:00.653Z,33.11
2022-07-25T10:56:30.024Z,33.17
2022-07-25T10:58:59.844Z,33.28
2022-07-25T11:01:30.062Z,33.31
2022-07-25T11:04:00.624Z,33.41
2022-07-25T11:06:35.199Z,33.49
2022-07-25T11:09:04.105Z,33.47
2022-07-25T11:11:40.451Z,33.28
2022-07-25T11:14:16.587Z,33.27
2022-07-25T11:16:45.077Z,33.43
2022-07-25T11:19:20.573Z,33.34
2022-07-25T11:21:52.116Z,33.36
2022-07-25T11:24:20.101Z,33.64
2022-07-25T11:26:49.951Z,33.77
2022-07-25T11:29:23.816Z,33.85
2022-07-25T11:31:56.584Z,34.18
2022-07-25T11:34:26.357Z,34.40
2022-07-25T11:36:57.367Z,34.21
2022-07-25T11:39:27.145Z,33.94
2022-07-25T11:42:03.204Z,33.75
2022-07-25T11:44:32.812Z,33.50
2022-07-25T11:47:00.737Z,33.30
2022-07-25T11:49:28.433Z,33.07
2022-07-25T11:51:57.565Z,32.92
2022-07-25T11:54:25.269Z,32.80
2022-07-25T11:56:53.103Z,32.64
2022-07-25T11:59:20.870Z,32.49
2022-07-25T12:01:48.822Z,32.40
2022-07-25T12:04:18.801Z,32.34
2022-07-25T12:06:50.270Z,32.37
2022-07-25T12:09:20.443Z,32.35
2022-07-25T12:11:49.323Z,32.42
2022-07-25T12:14:17.880Z,32.50
2022-07-25T12:16:45.752Z,32.66
2022-07-25T12:19:21.070Z,32.80
2022-07-25T12:21:49.145Z,32.78
2022-07-25T12:24:17.037Z,32.78
2022-07-25T12:26:46.144Z,32.73
2022-07-25T12:29:13.846Z,32.65
2022-07-25T12:31:41.645Z,32.55
2022-07-25T12:34:09.343Z,32.43
2022-07-25T12:36:43.709Z,32.38
2022-07-25T12:39:11.946Z,32.33
2022-07-25T12:41:40.041Z,32.28
2022-07-25T12:44:09.146Z,32.26
2022-07-25T12:46:38.317Z,32.34
2022-07-25T12:49:06.345Z,32.32
2022-07-25T12:51:34.344Z,32.33
2022-07-25T12:54:02.151Z,32.24
2022-07-25T12:56:29.920Z,32.21
2022-07-25T12:58:57.667Z,32.19
2022-07-25T13:01:26.747Z,32.20
2022-07-25T13:03:54.455Z,32.19
2022-07-25T13:06:22.349Z,32.23
2022-07-25T13:08:50.141Z,32.23
2022-07-25T13:11:17.870Z,32.21
2022-07-25T13:13:45.594Z,32.15
2022-07-25T13:16:13.345Z,32.12
2022-07-25T13:18:44.291Z,32.16
2022-07-25T13:21:12.100Z,32.08
2022-07-25T13:23:40.320Z,32.07
2022-07-25T13:26:08.760Z,32.01
2022-07-25T13:28:36.527Z,31.98
2022-07-25T13:31:06.913Z,31.96
2022-07-25T13:33:34.663Z,31.92
2022-07-25T13:36:03.810Z,31.93
2022-07-25T13:38:31.539Z,31.89
2022-07-25T13:40:59.298Z,31.91
2022-07-25T13:43:27.108Z,31.89
2022-07-25T13:45:55.141Z,31.84
2022-07-25T13:48:31.521Z,31.82
2022-07-25T13:51:00.110Z,31.83
2022-07-25T13:53:30.468Z,31.83
2022-07-25T13:55:59.145Z,31.86
2022-07-25T13:58:27.100Z,31.93
2022-07-25T14:00:55.231Z,32.09
2022-07-25T14:03:23.087Z,32.21
2022-07-25T14:05:51.049Z,32.28
2022-07-25T14:08:18.916Z,32.32
2022-07-25T14:10:48.031Z,32.35
2022-07-25T14:13:16.026Z,32.32
2022-07-25T14:15:43.847Z,32.27
2022-07-25T14:18:11.768Z,32.22
2022-07-25T14:20:39.589Z,32.22
2022-07-25T14:23:07.318Z,32.26
2022-07-25T14:25:35.261Z,32.34
2022-07-25T14:28:04.582Z,32.42
2022-07-25T14:30:32.330Z,32.56
2022-07-25T14:33:00.032Z,32.54
2022-07-25T14:35:32.330Z,32.50
2022-07-25T14:38:00.665Z,32.47
2022-07-25T14:40:28.457Z,32.43
2022-07-25T14:42:56.210Z,32.41
2022-07-25T14:45:25.253Z,32.42
2022-07-25T14:47:53.950Z,32.43
2022-07-25T14:50:21.961Z,32.44
2022-07-25T14:52:49.709Z,32.39
2022-07-25T14:55:18.722Z,32.44
2022-07-25T14:57:46.440Z,32.38
2022-07-25T15:00:15.188Z,32.35
2022-07-25T15:02:44.431Z,32.33
2022-07-25T15:05:12.174Z,32.29
2022-07-25T15:07:40.067Z,32.28
2022-07-25T15:10:08.413Z,32.35
2022-07-25T15:12:36.206Z,32.35
2022-07-25T15:15:04.214Z,32.36
2022-07-25T15:17:32.264Z,32.40
2022-07-25T15:20:01.449Z,32.36
2022-07-25T15:22:29.385Z,32.39
2022-07-25T15:25:27.583Z,32.36
2022-07-25T15:27:45.326Z,32.33
2022-07-25T15:30:13.698Z,32.37
2022-07-25T15:32:41.617Z,32.40
2022-07-25T15:35:10.778Z,32.40
2022-07-25T15:37:38.517Z,32.37
2022-07-25T15:40:07.495Z,32.38
2022-07-25T15:42:35.201Z,32.36
2022-07-25T15:45:32.078Z,32.37
2022-07-25T15:47:51.338Z,32.35
2022-07-25T15:50:21.422Z,32.32
2022-07-25T15:52:49.559Z,32.29
2022-07-25T15:55:17.290Z,32.26
2022-07-25T15:57:45.087Z,32.12
2022-07-25T16:00:16.226Z,32.10
2022-07-25T16:02:44.951Z,32.03
2022-07-25T16:05:12.652Z,31.95
2022-07-25T16:07:42.098Z,31.94
2022-07-25T16:10:11.143Z,31.87
2022-07-25T16:12:39.328Z,31.76
2022-07-25T16:15:08.374Z,31.69
2022-07-25T16:17:37.826Z,31.66
2022-07-25T16:20:06.617Z,31.63
2022-07-25T16:22:34.497Z,31.58
2022-07-25T16:25:04.175Z,31.48
2022-07-25T16:27:32.324Z,31.48
2022-07-25T16:30:00.850Z,31.37
2022-07-25T16:32:28.662Z,31.35
2022-07-25T16:34:56.377Z,31.28
2022-07-25T16:37:24.153Z,31.25
2022-07-25T16:39:51.902Z,31.17
2022-07-25T16:42:20.977Z,31.18
2022-07-25T16:44:49.318Z,31.05
2022-07-25T16:47:17.043Z,31.08
2022-07-25T16:49:44.770Z,31.04
2022-07-25T16:52:12.545Z,31.02
2022-07-25T16:54:42.043Z,30.98
2022-07-25T16:57:09.893Z,30.95
2022-07-25T16:59:38.941Z,30.97
2022-07-25T17:02:06.755Z,30.91
2022-07-25T17:04:35.124Z,30.93
2022-07-25T17:07:02.923Z,30.91
2022-07-25T17:09:30.697Z,30.88
2022-07-25T17:11:58.455Z,30.78
2022-07-25T17:14:30.255Z,30.74
2022-07-25T17:16:59.797Z,30.75
2022-07-25T17:19:27.491Z,30.78
2022-07-25T17:21:55.226Z,30.70
2022-07-25T17:24:23.051Z,30.67
2022-07-25T17:26:50.790Z,30.64
2022-07-25T17:29:18.670Z,30.61
2022-07-25T17:31:46.438Z,30.59
2022-07-25T17:34:15.553Z,30.61
2022-07-25T17:36:43.505Z,30.56
2022-07-25T17:39:11.479Z,30.54
2022-07-25T17:41:39.189Z,30.46
2022-07-25T17:44:11.637Z,30.44
2022-07-25T17:46:39.864Z,30.43
2022-07-25T17:49:07.627Z,30.37
2022-07-25T17:51:36.755Z,30.36
2022-07-25T17:54:04.752Z,30.30
2022-07-25T17:56:33.431Z,30.22
2022-07-25T17:59:01.140Z,30.18
2022-07-25T18:01:29.120Z,30.21
2022-07-25T18:03:57.236Z,30.18
2022-07-25T18:06:29.584Z,30.08
2022-07-25T18:08:59.092Z,30.06
2022-07-25T18:11:27.693Z,30.04
2022-07-25T18:13:55.384Z,30.02
2022-07-25T18:16:23.814Z,29.99
2022-07-25T18:18:51.523Z,30.01
2022-07-25T18:21:19.189Z,29.99
2022-07-25T18:23:47.002Z,29.96
2022-07-25T18:26:16.032Z,29.89
2022-07-25T18:28:43.884Z,29.87
2022-07-25T18:31:11.852Z,29.81
2022-07-25T18:33:39.601Z,29.75
2022-07-25T18:36:08.062Z,29.72
2022-07-25T18:38:36.485Z,29.64
2022-07-25T18:41:28.198Z,29.62
2022-07-25T18:43:54.432Z,29.62
2022-07-25T18:46:22.387Z,29.61
2022-07-25T18:48:51.287Z,29.62
2022-07-25T18:51:19.400Z,29.59
2022-07-25T18:53:48.535Z,29.51
2022-07-25T18:56:17.047Z,29.50
2022-07-25T18:58:45.174Z,29.41
2022-07-25T19:01:14.300Z,29.38
2022-07-25T19:03:42.127Z,29.34
2022-07-25T19:06:10.946Z,29.28
2022-07-25T19:08:38.944Z,29.22
2022-07-25T19:11:08.445Z,29.19
2022-07-25T19:13:49.557Z,29.13
2022-07-25T19:16:20.533Z,29.06
2022-07-25T19:18:49.159Z,29.05
2022-07-25T19:21:16.864Z,29.04
2022-07-25T19:23:50.548Z,28.99
2022-07-25T19:26:19.424Z,28.99
2022-07-25T19:28:47.273Z,28.94
2022-07-25T19:31:15.285Z,28.89
2022-07-25T19:33:45.896Z,28.86
2022-07-25T19:36:13.951Z,28.78
2022-07-25T19:38:41.708Z,28.78
2022-07-25T19:41:09.692Z,28.78
2022-07-25T19:43:37.460Z,28.77
2022-07-25T19:46:05.281Z,28.75
2022-07-25T19:48:40.675Z,28.73
2022-07-25T19:51:09.814Z,28.66
2022-07-25T19:53:40.624Z,28.65
2022-07-25T19:56:09.243Z,28.59
2022-07-25T19:58:39.083Z,28.55
2022-07-25T20:01:11.398Z,28.48
2022-07-25T20:03:39.176Z,28.48
2022-07-25T20:06:08.431Z,28.46
2022-07-25T20:08:39.323Z,28.43
2022-07-25T20:11:07.477Z,28.41
2022-07-25T20:13:36.077Z,28.38
2022-07-25T20:16:04.641Z,28.37
2022-07-25T20:18:32.692Z,28.38
2022-07-25T20:21:00.648Z,28.37
2022-07-25T20:23:28.599Z,28.25
2022-07-25T20:25:58.072Z,28.20
2022-07-25T20:28:25.812Z,28.07
2022-07-25T20:30:54.054Z,28.04
2022-07-25T20:33:23.760Z,28.08
2022-07-25T20:36:09.764Z,28.08
2022-07-25T20:42:19.138Z,27.98
2022-07-25T20:44:47.272Z,28.00
2022-07-25T20:47:16.029Z,27.99
2022-07-25T20:49:44.236Z,27.93
2022-07-25T20:52:12.097Z,27.82
2022-07-25T20:54:42.101Z,27.86
2022-07-25T20:57:11.489Z,27.81
2022-07-25T20:59:40.837Z,27.78
2022-07-25T21:02:08.581Z,27.71
2022-07-25T21:04:36.367Z,27.73
2022-07-25T21:07:05.225Z,27.65
2022-07-25T21:09:33.171Z,27.62
2022-07-25T21:12:02.383Z,27.71
2022-07-25T21:14:30.076Z,27.70
2022-07-25T21:16:59.131Z,27.66
2022-07-25T21:19:26.842Z,27.66
2022-07-25T21:21:54.624Z,27.65
2022-07-25T21:24:22.321Z,27.66
2022-07-25T21:26:51.275Z,27.65
2022-07-25T21:29:19.260Z,27.65
2022-07-25T21:31:47.099Z,27.65
2022-07-25T21:34:16.357Z,27.62
2022-07-25T21:36:44.065Z,27.62
2022-07-25T21:39:11.821Z,27.63
2022-07-25T21:41:39.607Z,27.62
2022-07-25T21:44:07.310Z,27.62
2022-07-25T21:46:35.011Z,27.60
2022-07-25T21:49:22.940Z,27.58
2022-07-25T21:52:13.324Z,27.53
2022-07-25T21:54:42.075Z,27.51
2022-07-25T21:57:13.433Z,27.50
2022-07-25T21:59:42.082Z,27.49
2022-07-25T22:02:09.781Z,27.48
2022-07-25T22:04:37.583Z,27.48
2022-07-25T22:07:05.877Z,27.48
2022-07-25T22:09:34.912Z,27.48
2022-07-25T22:12:02.795Z,27.45
2022-07-25T22:14:30.607Z,27.43
2022-07-25T22:16:58.435Z,27.43
2022-07-25T22:19:26.392Z,27.43
2022-07-25T22:21:54.171Z,27.45
2022-07-25T22:24:21.955Z,27.43
2022-07-25T22:26:51.051Z,27.38
2022-07-25T22:29:18.783Z,27.35
2022-07-25T22:31:46.569Z,27.34
2022-07-25T22:34:14.312Z,27.33
2022-07-25T22:36:42.208Z,27.30
2022-07-25T22:39:10.911Z,27.29
2022-07-25T22:41:38.976Z,27.27
2022-07-25T22:44:08.441Z,27.27
2022-07-25T22:46:36.163Z,27.27
2022-07-25T22:49:04.153Z,27.27
2022-07-25T22:51:32.103Z,27.28
2022-07-25T22:54:00.078Z,27.27
2022-07-25T22:56:29.996Z,27.25
2022-07-25T22:58:58.203Z,27.24
2022-07-25T23:01:27.429Z,27.22
2022-07-25T23:03:55.224Z,27.19
2022-07-25T23:06:23.101Z,27.18
2022-07-25T23:08:51.504Z,27.15
2022-07-25T23:11:19.676Z,27.14
2022-07-25T23:13:47.369Z,27.13
2022-07-25T23:16:15.209Z,27.09
2022-07-25T23:18:44.276Z,27.05
2022-07-25T23:21:12.224Z,26.99
2022-07-25T23:23:39.884Z,26.96
2022-07-25T23:26:07.519Z,26.97
2022-07-25T23:28:35.270Z,26.94
2022-07-25T23:31:03.011Z,26.98
2022-07-25T23:33:30.881Z,26.99
2022-07-25T23:36:00.058Z,26.93
2022-07-25T23:38:29.411Z,26.86
2022-07-25T23:40:57.147Z,26.84
2022-07-25T23:43:37.526Z,26.83
2022-07-25T23:46:12.841Z,26.78
2022-07-25T23:48:41.194Z,26.75
2022-07-25T23:51:10.432Z,26.76
2022-07-25T23:53:38.376Z,26.71
2022-07-25T23:56:06.593Z,26.70
2022-07-25T23:58:34.356Z,26.69
